createdAt,value
2023-01-29T00:01:37.265Z,96653.30
2023-01-29T00:04:06.718Z,96653.25
2023-01-29T00:06:35.940Z,96651.44
2023-01-29T00:09:05.305Z,96648.69
2023-01-29T00:11:35.599Z,96651.98
2023-01-29T00:14:04.842Z,96652.13
2023-01-29T00:16:34.084Z,96652.80
2023-01-29T00:19:03.578Z,96657.95
2023-01-29T00:21:32.965Z,96658.92
2023-01-29T00:24:02.289Z,96659.78
2023-01-29T00:26:31.993Z,96665.36
2023-01-29T00:29:02.495Z,96664.33
2023-01-29T00:31:32.555Z,96665.44
2023-01-29T00:34:04.051Z,96671.43
2023-01-29T00:36:33.652Z,96666.11
2023-01-29T00:39:11.341Z,96668.04
2023-01-29T00:41:59.979Z,96667.81
2023-01-29T00:44:49.279Z,96666.06
2023-01-29T00:47:36.940Z,96666.85
2023-01-29T00:50:08.039Z,96669.23
2023-01-29T00:52:37.665Z,96667.23
2023-01-29T00:55:08.882Z,96667.87
2023-01-29T00:57:39.145Z,96665.09
2023-01-29T01:00:11.212Z,96664.82
2023-01-29T01:03:00.315Z,96667.14
2023-01-29T01:05:30.525Z,96669.23
2023-01-29T01:08:00.382Z,96670.42
2023-01-29T01:10:31.120Z,96672.96
2023-01-29T01:13:02.056Z,96671.76
2023-01-29T01:15:34.551Z,96668.20
2023-01-29T01:18:04.862Z,96668.32
2023-01-29T01:20:35.842Z,96669.66
2023-01-29T01:23:05.638Z,96668.73
2023-01-29T01:25:34.736Z,96665.52
2023-01-29T01:28:03.935Z,96664.80
2023-01-29T01:30:33.482Z,96662.52
2023-01-29T01:33:03.266Z,96660.70
2023-01-29T01:35:33.348Z,96655.11
2023-01-29T01:38:01.791Z,96652.86
2023-01-29T01:40:31.191Z,96653.01
2023-01-29T01:43:02.599Z,96650.92
2023-01-29T01:45:33.669Z,96647.77
2023-01-29T01:48:14.053Z,96649.77
2023-01-29T01:50:49.164Z,96651.95
2023-01-29T01:53:23.119Z,96651.59
2023-01-29T01:56:04.471Z,96654.22
2023-01-29T01:58:52.401Z,96659.46
2023-01-29T02:01:28.228Z,96656.07
2023-01-29T02:04:30.990Z,96658.42
2023-01-29T02:07:21.503Z,96663.16
2023-01-29T02:10:11.966Z,96664.58
2023-01-29T02:12:41.635Z,96665.14
2023-01-29T02:15:11.953Z,96662.11
2023-01-29T02:17:42.154Z,96661.52
2023-01-29T02:20:17.484Z,96664.42
2023-01-29T02:22:56.535Z,96665.05
2023-01-29T02:25:47.469Z,96659.98
2023-01-29T02:28:28.115Z,96665.33
2023-01-29T02:31:18.091Z,96665.63
2023-01-29T02:33:50.494Z,96668.50
2023-01-29T02:36:38.666Z,96673.32
2023-01-29T02:39:08.094Z,96676.14
2023-01-29T02:41:56.570Z,96676.27
2023-01-29T02:44:31.404Z,96683.15
2023-01-29T02:47:05.835Z,96683.70
2023-01-29T02:49:50.450Z,96687.91
2023-01-29T02:52:22.057Z,96691.97
2023-01-29T02:54:57.281Z,96702.14
2023-01-29T02:57:31.717Z,96709.85
2023-01-29T03:00:22.466Z,96710.91
2023-01-29T03:03:01.482Z,96714.39
2023-01-29T03:05:51.593Z,96719.20
2023-01-29T03:08:37.555Z,96721.63
2023-01-29T03:11:07.572Z,96723.14
2023-01-29T03:13:57.420Z,96732.16
2023-01-29T03:16:32.054Z,96740.23
2023-01-29T03:19:04.143Z,96739.32
2023-01-29T03:21:58.631Z,96742.13
2023-01-29T03:25:06.004Z,96739.15
2023-01-29T03:28:15.649Z,96743.52
2023-01-29T03:31:12.342Z,96743.73
2023-01-29T03:33:51.642Z,96750.46
2023-01-29T03:36:58.852Z,96747.97
2023-01-29T03:39:29.606Z,96752.86
2023-01-29T03:42:19.604Z,96757.73
2023-01-29T03:44:54.457Z,96759.19
2023-01-29T03:47:35.714Z,96759.77
2023-01-29T03:50:16.846Z,96754.92
2023-01-29T03:52:53.051Z,96751.98
2023-01-29T03:55:25.274Z,96750.52
2023-01-29T03:57:57.222Z,96751.36
2023-01-29T04:00:32.800Z,96756.55
2023-01-29T04:03:23.200Z,96758.77
2023-01-29T04:06:06.404Z,96764.80
2023-01-29T04:08:46.432Z,96767.88
2023-01-29T04:11:17.643Z,96769.16
2023-01-29T04:13:47.765Z,96768.53
2023-01-29T04:16:30.188Z,96761.02
2023-01-29T04:19:15.658Z,96760.52
2023-01-29T04:21:47.852Z,96755.77
2023-01-29T04:24:19.216Z,96756.14
2023-01-29T04:27:13.987Z,96752.88
2023-01-29T04:29:54.818Z,96747.77
2023-01-29T04:32:27.131Z,96744.24
2023-01-29T04:35:13.686Z,96744.26
2023-01-29T04:38:05.654Z,96740.04
2023-01-29T04:40:53.865Z,96744.10
2023-01-29T04:43:29.641Z,96749.93
2023-01-29T04:46:02.013Z,96749.21
2023-01-29T04:48:37.071Z,96752.73
2023-01-29T04:51:13.768Z,96753.85
2023-01-29T04:53:53.449Z,96754.02
2023-01-29T04:56:30.082Z,96757.27
2023-01-29T04:59:02.236Z,96765.83
2023-01-29T05:01:33.805Z,96765.77
2023-01-29T05:04:05.750Z,96774.15
2023-01-29T05:06:35.869Z,96776.44
2023-01-29T05:09:05.443Z,96779.77
2023-01-29T05:11:36.376Z,96782.60
2023-01-29T05:14:08.361Z,96782.00
2023-01-29T05:16:43.095Z,96783.14
2023-01-29T05:19:14.088Z,96788.14
2023-01-29T05:21:44.537Z,96789.50
2023-01-29T05:24:18.392Z,96793.12
2023-01-29T05:27:08.458Z,96798.10
2023-01-29T05:29:38.862Z,96804.66
2023-01-29T05:32:07.395Z,96807.75
2023-01-29T05:34:36.855Z,96803.24
2023-01-29T05:37:06.788Z,96804.27
2023-01-29T05:39:36.268Z,96804.12
2023-01-29T05:42:05.580Z,96807.39
2023-01-29T05:44:35.271Z,96804.37
2023-01-29T05:47:04.413Z,96815.08
2023-01-29T05:49:34.102Z,96821.07
2023-01-29T05:52:03.461Z,96822.79
2023-01-29T05:54:32.556Z,96820.23
2023-01-29T05:57:01.698Z,96817.98
2023-01-29T05:59:31.693Z,96822.34
2023-01-29T06:02:00.911Z,96825.34
2023-01-29T06:04:30.708Z,96829.94
2023-01-29T06:06:59.920Z,96829.09
2023-01-29T06:09:29.433Z,96830.88
2023-01-29T06:11:58.549Z,96836.45
2023-01-29T06:14:27.781Z,96839.16
2023-01-29T06:16:57.040Z,96837.40
2023-01-29T06:19:26.202Z,96843.73
2023-01-29T06:21:55.314Z,96844.95
2023-01-29T06:24:23.956Z,96850.03
2023-01-29T06:26:52.845Z,96854.92
2023-01-29T06:29:22.366Z,96853.48
2023-01-29T06:31:52.077Z,96848.52
2023-01-29T06:34:21.708Z,96839.61
2023-01-29T06:36:51.365Z,96838.77
2023-01-29T06:39:20.786Z,96838.52
2023-01-29T06:41:50.279Z,96845.73
2023-01-29T06:44:19.852Z,96853.15
2023-01-29T06:46:51.319Z,96847.58
2023-01-29T06:49:20.657Z,96847.00
2023-01-29T06:51:50.185Z,96848.18
2023-01-29T06:54:19.857Z,96849.73
2023-01-29T06:56:49.165Z,96852.11
2023-01-29T06:59:19.176Z,96853.53
2023-01-29T07:01:48.830Z,96855.04
2023-01-29T07:04:18.448Z,96855.69
2023-01-29T07:06:47.761Z,96854.86
2023-01-29T07:09:17.334Z,96853.99
2023-01-29T07:11:46.638Z,96853.52
2023-01-29T07:14:16.140Z,96850.94
2023-01-29T07:16:44.941Z,96850.52
2023-01-29T07:19:14.629Z,96840.04
2023-01-29T07:21:43.865Z,96835.89
2023-01-29T07:24:13.433Z,96836.65
2023-01-29T07:26:43.058Z,96833.00
2023-01-29T07:29:12.742Z,96834.46
2023-01-29T07:31:41.187Z,96839.15
2023-01-29T07:34:10.869Z,96844.28
2023-01-29T07:36:40.423Z,96843.80
2023-01-29T07:39:09.541Z,96845.65
2023-01-29T07:41:39.207Z,96848.41
2023-01-29T07:44:18.498Z,96854.08
2023-01-29T07:46:48.001Z,96858.05
2023-01-29T07:49:17.463Z,96854.23
2023-01-29T07:51:47.037Z,96852.68
2023-01-29T07:54:16.187Z,96849.76
2023-01-29T07:56:45.980Z,96843.03
2023-01-29T07:59:15.355Z,96840.48
2023-01-29T08:01:44.773Z,96846.94
2023-01-29T08:04:14.131Z,96844.90
2023-01-29T08:06:43.393Z,96841.52
2023-01-29T08:09:12.535Z,96846.89
2023-01-29T08:11:42.293Z,96848.02
2023-01-29T08:14:13.423Z,96844.27
2023-01-29T08:16:44.473Z,96848.04
2023-01-29T08:19:14.319Z,96850.23
2023-01-29T08:21:43.961Z,96855.27
2023-01-29T08:24:13.423Z,96856.13
2023-01-29T08:26:41.875Z,96856.06
2023-01-29T08:29:11.417Z,96858.05
2023-01-29T08:31:41.360Z,96862.89
2023-01-29T08:34:11.378Z,96870.70
2023-01-29T08:36:40.933Z,96867.92
2023-01-29T08:39:12.087Z,96868.20
2023-01-29T08:41:41.997Z,96868.12
2023-01-29T08:44:11.551Z,96865.03
2023-01-29T08:46:41.230Z,96864.88
2023-01-29T08:49:10.435Z,96865.59
2023-01-29T08:51:39.902Z,96868.42
2023-01-29T08:54:09.521Z,96865.23
2023-01-29T08:56:38.744Z,96867.80
2023-01-29T08:59:10.864Z,96872.08
2023-01-29T09:01:39.351Z,96877.85
2023-01-29T09:04:13.365Z,96872.04
2023-01-29T09:06:42.938Z,96865.16
2023-01-29T09:09:12.595Z,96867.75
2023-01-29T09:11:41.440Z,96874.22
2023-01-29T09:14:12.815Z,96870.35
2023-01-29T09:16:42.354Z,96875.82
2023-01-29T09:19:12.009Z,96875.39
2023-01-29T09:21:41.200Z,96872.42
2023-01-29T09:24:40.623Z,96875.21
2023-01-29T09:27:10.723Z,96878.45
2023-01-29T09:29:39.299Z,96875.65
2023-01-29T09:32:08.542Z,96869.64
2023-01-29T09:34:37.780Z,96872.57
2023-01-29T09:37:07.092Z,96870.90
2023-01-29T09:39:36.528Z,96863.73
2023-01-29T09:42:25.139Z,96861.90
2023-01-29T09:45:00.736Z,96859.32
2023-01-29T09:47:32.542Z,96861.61
2023-01-29T09:50:02.234Z,96852.79
2023-01-29T09:52:38.765Z,96852.20
2023-01-29T09:55:20.638Z,96845.83
2023-01-29T09:57:55.328Z,96849.24
2023-01-29T10:00:26.221Z,96849.41
2023-01-29T10:03:03.021Z,96849.44
2023-01-29T10:05:53.039Z,96847.20
2023-01-29T10:08:22.221Z,96839.11
2023-01-29T10:10:56.772Z,96836.57
2023-01-29T10:13:44.364Z,96842.86
2023-01-29T10:16:40.111Z,96843.27
2023-01-29T10:19:32.638Z,96838.33
2023-01-29T10:22:33.655Z,96838.05
2023-01-29T10:25:12.616Z,96845.52
2023-01-29T10:27:45.444Z,96854.02
2023-01-29T10:30:22.371Z,96857.59
2023-01-29T10:32:53.605Z,96863.06
2023-01-29T10:35:42.009Z,96864.05
2023-01-29T10:38:20.112Z,96868.77
2023-01-29T10:41:04.018Z,96865.89
2023-01-29T10:43:44.606Z,96866.33
2023-01-29T10:46:26.358Z,96866.05
2023-01-29T10:49:01.435Z,96868.77
2023-01-29T10:51:47.545Z,96869.33
2023-01-29T10:54:17.800Z,96867.49
2023-01-29T10:56:58.789Z,96866.02
2023-01-29T10:59:41.965Z,96867.77
2023-01-29T11:02:16.539Z,96871.70
2023-01-29T11:04:48.174Z,96873.63
2023-01-29T11:07:19.018Z,96874.48
2023-01-29T11:10:08.808Z,96870.75
2023-01-29T11:12:39.471Z,96868.76
2023-01-29T11:15:18.893Z,96866.17
2023-01-29T11:18:06.001Z,96868.63
2023-01-29T11:20:35.282Z,96869.52
2023-01-29T11:23:06.712Z,96868.67
2023-01-29T11:25:37.143Z,96865.11
2023-01-29T11:28:06.821Z,96864.29
2023-01-29T11:30:40.192Z,96860.23
2023-01-29T11:33:15.757Z,96861.34
2023-01-29T11:35:45.918Z,96854.00
2023-01-29T11:38:19.995Z,96854.11
2023-01-29T11:40:51.521Z,96856.86
2023-01-29T11:43:21.911Z,96850.02
2023-01-29T11:45:52.540Z,96845.42
2023-01-29T11:48:23.179Z,96843.17
2023-01-29T11:50:54.005Z,96836.27
2023-01-29T11:53:35.501Z,96830.56
2023-01-29T11:56:07.496Z,96830.44
2023-01-29T11:58:37.158Z,96830.80
2023-01-29T12:01:06.107Z,96826.41
2023-01-29T12:03:44.468Z,96818.80
2023-01-29T12:06:22.314Z,96820.03
2023-01-29T12:09:00.345Z,96822.96
2023-01-29T12:11:31.680Z,96832.94
2023-01-29T12:14:02.587Z,96830.81
2023-01-29T12:16:37.381Z,96816.66
2023-01-29T12:19:25.767Z,96816.83
2023-01-29T12:22:12.158Z,96818.42
2023-01-29T12:24:50.952Z,96816.41
2023-01-29T12:27:25.819Z,96814.79
2023-01-29T12:30:05.208Z,96820.10
2023-01-29T12:32:40.551Z,96819.96
2023-01-29T12:35:28.680Z,96822.23
2023-01-29T12:37:58.755Z,96817.71
2023-01-29T12:40:32.957Z,96824.35
2023-01-29T12:43:07.520Z,96823.14
2023-01-29T12:45:37.158Z,96823.02
2023-01-29T12:48:08.867Z,96820.28
2023-01-29T12:50:39.017Z,96821.45
2023-01-29T12:53:10.571Z,96822.20
2023-01-29T12:55:48.354Z,96823.83
2023-01-29T12:58:22.268Z,96817.52
2023-01-29T13:00:57.404Z,96815.61
2023-01-29T13:03:32.497Z,96813.91
2023-01-29T13:06:10.137Z,96821.04
2023-01-29T13:08:39.624Z,96825.15
2023-01-29T13:11:16.936Z,96824.76
2023-01-29T13:13:54.358Z,96834.25
2023-01-29T13:16:28.568Z,96832.78
2023-01-29T13:19:05.133Z,96831.54
2023-01-29T13:21:41.067Z,96832.08
2023-01-29T13:24:15.841Z,96832.48
2023-01-29T13:26:49.149Z,96829.58
2023-01-29T13:29:26.184Z,96833.56
2023-01-29T13:31:56.383Z,96834.56
2023-01-29T13:34:28.772Z,96834.02
2023-01-29T13:37:04.803Z,96830.63
2023-01-29T13:39:37.869Z,96831.42
2023-01-29T13:42:17.017Z,96834.10
2023-01-29T13:44:50.757Z,96831.73
2023-01-29T13:47:26.416Z,96834.64
2023-01-29T13:49:56.891Z,96847.15
2023-01-29T13:52:35.889Z,96838.98
2023-01-29T13:55:17.108Z,96841.86
2023-01-29T13:57:49.380Z,96843.11
2023-01-29T14:00:31.462Z,96842.12
2023-01-29T14:03:01.074Z,96839.98
2023-01-29T14:05:31.587Z,96836.61
2023-01-29T14:08:02.463Z,96833.09
2023-01-29T14:10:32.780Z,96840.96
2023-01-29T14:13:05.100Z,96839.25
2023-01-29T14:15:37.149Z,96837.36
2023-01-29T14:18:09.614Z,96832.73
2023-01-29T14:20:52.006Z,96832.80
2023-01-29T14:23:42.284Z,96833.09
2023-01-29T14:26:30.606Z,96835.35
2023-01-29T14:29:02.012Z,96838.35
2023-01-29T14:31:42.576Z,96834.81
2023-01-29T14:34:33.582Z,96832.56
2023-01-29T14:37:19.176Z,96836.88
2023-01-29T14:39:58.728Z,96838.96
2023-01-29T14:42:30.225Z,96847.13
2023-01-29T14:45:09.630Z,96844.29
2023-01-29T14:47:39.398Z,96847.63
2023-01-29T14:50:27.438Z,96847.59
2023-01-29T14:53:11.709Z,96855.95
2023-01-29T14:55:46.925Z,96843.52
2023-01-29T14:58:24.224Z,96841.89
2023-01-29T15:00:55.130Z,96846.63
2023-01-29T15:03:44.991Z,96852.25
2023-01-29T15:06:24.322Z,96853.89
2023-01-29T15:09:01.067Z,96855.05
2023-01-29T15:11:38.008Z,96853.73
2023-01-29T15:14:14.157Z,96859.05
2023-01-29T15:16:43.830Z,96861.93
2023-01-29T15:19:16.890Z,96863.94
2023-01-29T15:22:05.539Z,96861.33
2023-01-29T15:24:35.944Z,96864.98
2023-01-29T15:27:07.662Z,96861.89
2023-01-29T15:29:38.616Z,96863.93
2023-01-29T15:32:08.668Z,96861.92
2023-01-29T15:34:43.127Z,96861.48
2023-01-29T15:37:33.174Z,96858.58
2023-01-29T15:40:05.568Z,96862.90
2023-01-29T15:42:48.969Z,96865.90
2023-01-29T15:45:28.030Z,96862.06
2023-01-29T15:48:00.758Z,96857.14
2023-01-29T15:50:30.203Z,96861.06
2023-01-29T15:53:00.653Z,96863.31
2023-01-29T15:55:33.368Z,96858.77
2023-01-29T15:58:02.935Z,96860.34
2023-01-29T16:00:32.229Z,96864.84
2023-01-29T16:03:13.666Z,96860.16
2023-01-29T16:05:42.891Z,96867.22
2023-01-29T16:08:14.755Z,96868.00
2023-01-29T16:10:45.715Z,96864.68
2023-01-29T16:13:20.938Z,96861.55
2023-01-29T16:15:58.772Z,96857.98
2023-01-29T16:18:36.458Z,96851.90
2023-01-29T16:21:09.390Z,96843.77
2023-01-29T16:23:45.236Z,96840.03
2023-01-29T16:26:20.515Z,96844.27
2023-01-29T16:28:49.909Z,96844.17
2023-01-29T16:31:24.528Z,96843.84
2023-01-29T16:33:57.244Z,96844.54
2023-01-29T16:36:28.141Z,96843.00
2023-01-29T16:38:56.618Z,96844.79
2023-01-29T16:41:25.837Z,96844.05
2023-01-29T16:43:59.815Z,96844.92
2023-01-29T16:46:39.131Z,96847.35
2023-01-29T16:49:40.604Z,96847.75
2023-01-29T16:52:39.704Z,96851.98
2023-01-29T16:55:27.307Z,96853.04
2023-01-29T16:57:57.025Z,96857.09
2023-01-29T17:00:28.036Z,96858.63
2023-01-29T17:03:07.255Z,96860.42
2023-01-29T17:05:38.179Z,96858.29
2023-01-29T17:08:08.323Z,96858.27
2023-01-29T17:10:38.031Z,96859.96
2023-01-29T17:13:09.712Z,96860.58
2023-01-29T17:15:46.439Z,96866.55
2023-01-29T17:18:25.475Z,96865.86
2023-01-29T17:20:56.888Z,96863.77
2023-01-29T17:23:26.413Z,96864.76
2023-01-29T17:25:55.807Z,96865.30
2023-01-29T17:28:25.509Z,96865.33
2023-01-29T17:31:05.905Z,96859.39
2023-01-29T17:33:40.125Z,96857.79
2023-01-29T17:36:14.058Z,96860.21
2023-01-29T17:38:43.743Z,96856.58
2023-01-29T17:41:16.614Z,96856.67
2023-01-29T17:43:49.054Z,96853.20
2023-01-29T17:46:20.457Z,96856.30
2023-01-29T17:48:49.960Z,96857.87
2023-01-29T17:51:19.546Z,96859.45
2023-01-29T17:53:48.966Z,96859.54
2023-01-29T17:56:21.118Z,96858.52
2023-01-29T17:58:52.350Z,96853.88
2023-01-29T18:01:22.061Z,96859.25
2023-01-29T18:03:51.336Z,96859.63
2023-01-29T18:06:27.541Z,96862.86
2023-01-29T18:09:01.764Z,96863.02
2023-01-29T18:11:31.040Z,96866.17
2023-01-29T18:14:05.194Z,96867.77
2023-01-29T18:16:45.061Z,96868.11
2023-01-29T18:19:15.900Z,96867.05
2023-01-29T18:21:45.612Z,96865.03
2023-01-29T18:24:15.316Z,96867.78
2023-01-29T18:26:45.083Z,96870.69
2023-01-29T18:29:14.839Z,96867.78
2023-01-29T18:31:44.527Z,96870.14
2023-01-29T18:34:14.009Z,96877.80
2023-01-29T18:36:48.481Z,96879.16
2023-01-29T18:39:18.277Z,96882.48
2023-01-29T18:41:47.989Z,96888.42
2023-01-29T18:44:17.743Z,96887.98
2023-01-29T18:46:46.902Z,96885.42
2023-01-29T18:49:16.422Z,96886.70
2023-01-29T18:51:45.945Z,96882.84
2023-01-29T18:54:15.640Z,96885.42
2023-01-29T18:57:08.700Z,96882.19
2023-01-29T18:59:34.858Z,96879.52
2023-01-29T19:02:04.335Z,96883.73
2023-01-29T19:04:33.743Z,96881.65
2023-01-29T19:07:04.928Z,96880.42
2023-01-29T19:09:34.079Z,96881.33
2023-01-29T19:12:03.395Z,96878.02
2023-01-29T19:14:32.671Z,96869.27
2023-01-29T19:17:04.996Z,96874.02
2023-01-29T19:19:34.156Z,96877.90
2023-01-29T19:22:03.943Z,96878.52
2023-01-29T19:24:39.589Z,96882.01
2023-01-29T19:27:08.874Z,96879.45
2023-01-29T19:29:37.959Z,96888.41
2023-01-29T19:32:09.259Z,96889.06
2023-01-29T19:34:38.556Z,96887.13
2023-01-29T19:37:06.996Z,96891.18
2023-01-29T19:39:36.326Z,96890.29
2023-01-29T19:42:05.547Z,96887.72
2023-01-29T19:44:35.504Z,96890.68
2023-01-29T19:47:05.367Z,96894.66
2023-01-29T19:49:35.003Z,96899.52
2023-01-29T19:52:04.144Z,96900.27
2023-01-29T19:54:33.312Z,96898.41
2023-01-29T19:57:03.049Z,96903.13
2023-01-29T19:59:32.320Z,96896.44
2023-01-29T20:02:01.791Z,96897.40
2023-01-29T20:04:31.211Z,96898.63
2023-01-29T20:07:00.736Z,96895.43
2023-01-29T20:09:32.211Z,96895.23
2023-01-29T20:12:01.496Z,96891.30
2023-01-29T20:14:30.964Z,96889.33
2023-01-29T20:17:00.526Z,96891.21
2023-01-29T20:19:31.961Z,96888.05
2023-01-29T20:22:01.499Z,96886.36
2023-01-29T20:24:32.537Z,96891.95
2023-01-29T20:27:03.415Z,96890.89
2023-01-29T20:29:32.753Z,96888.55
2023-01-29T20:32:02.790Z,96890.08
2023-01-29T20:34:32.430Z,96888.98
2023-01-29T20:37:01.935Z,96890.65
2023-01-29T20:39:31.306Z,96887.63
2023-01-29T20:42:00.968Z,96889.42
2023-01-29T20:44:32.443Z,96885.85
2023-01-29T20:47:02.992Z,96892.99
2023-01-29T20:49:31.463Z,96895.80
2023-01-29T20:52:01.123Z,96894.65
2023-01-29T20:54:33.539Z,96889.60
2023-01-29T20:57:02.759Z,96890.79
2023-01-29T20:59:34.166Z,96894.60
2023-01-29T21:02:02.700Z,96887.80
2023-01-29T21:04:32.532Z,96887.14
2023-01-29T21:07:04.513Z,96886.52
2023-01-29T21:09:34.107Z,96876.41
2023-01-29T21:12:05.806Z,96873.77
2023-01-29T21:14:35.289Z,96871.01
2023-01-29T21:17:05.449Z,96870.55
2023-01-29T21:19:35.307Z,96869.27
2023-01-29T21:22:05.012Z,96868.31
2023-01-29T21:24:34.572Z,96870.07
2023-01-29T21:27:04.177Z,96865.52
2023-01-29T21:29:34.831Z,96868.46
2023-01-29T21:32:04.859Z,96870.92
2023-01-29T21:34:34.683Z,96866.13
2023-01-29T21:37:04.165Z,96866.02
2023-01-29T21:39:33.702Z,96867.79
2023-01-29T21:42:22.740Z,96866.88
2023-01-29T21:44:52.367Z,96866.63
2023-01-29T21:47:22.719Z,96869.05
2023-01-29T21:49:56.117Z,96874.30
2023-01-29T21:52:25.217Z,96871.34
2023-01-29T21:54:54.733Z,96865.73
2023-01-29T21:57:27.126Z,96863.67
2023-01-29T21:59:58.175Z,96858.36
2023-01-29T22:02:31.284Z,96867.64
2023-01-29T22:05:18.697Z,96861.56
2023-01-29T22:07:49.800Z,96859.90
2023-01-29T22:10:19.888Z,96855.75
2023-01-29T22:12:49.576Z,96855.23
2023-01-29T22:15:23.265Z,96847.16
2023-01-29T22:17:53.005Z,96843.27
2023-01-29T22:20:30.374Z,96842.98
2023-01-29T22:23:02.279Z,96838.73
2023-01-29T22:25:32.664Z,96835.05
2023-01-29T22:28:02.354Z,96832.34
2023-01-29T22:30:31.386Z,96834.54
2023-01-29T22:33:00.831Z,96837.94
2023-01-29T22:35:30.030Z,96838.64
2023-01-29T22:37:59.269Z,96841.21
2023-01-29T22:40:27.855Z,96840.80
2023-01-29T22:42:59.265Z,96829.32
2023-01-29T22:45:28.313Z,96833.33
2023-01-29T22:47:59.506Z,96832.55
2023-01-29T22:50:27.923Z,96829.69
2023-01-29T22:52:57.133Z,96828.74
2023-01-29T22:55:26.684Z,96833.10
2023-01-29T22:57:58.038Z,96830.52
2023-01-29T23:00:27.230Z,96833.52
2023-01-29T23:02:57.003Z,96837.50
2023-01-29T23:05:26.568Z,96838.73
2023-01-29T23:07:56.277Z,96838.23
2023-01-29T23:10:25.693Z,96844.49
2023-01-29T23:12:55.028Z,96846.09
2023-01-29T23:15:24.109Z,96848.59
2023-01-29T23:17:53.299Z,96852.33
2023-01-29T23:20:22.196Z,96846.63
2023-01-29T23:22:54.039Z,96843.88
2023-01-29T23:25:23.310Z,96846.42
2023-01-29T23:27:52.580Z,96850.06
2023-01-29T23:30:21.758Z,96846.05
2023-01-29T23:32:50.461Z,96846.27
2023-01-29T23:35:19.544Z,96843.59
2023-01-29T23:37:48.585Z,96844.82
2023-01-29T23:40:18.152Z,96843.65
2023-01-29T23:42:48.567Z,96844.61
2023-01-29T23:45:17.846Z,96847.02
2023-01-29T23:47:46.913Z,96847.23
2023-01-29T23:50:16.403Z,96849.23
2023-01-29T23:52:45.769Z,96842.89
2023-01-29T23:55:14.963Z,96841.16
2023-01-29T23:57:44.143Z,96839.48
